Wheelersburg, Ohio
Current Conditions -  °F | °C
As of 6:15 PM on Saturday 25 Oct 2014 (Local Time) from KDWU Reporting Station
Clear Clear  
Wind Chill: 66°   Ceiling: Unl
Heat Index: 66°   Visibility: 10mi
Dew Point: 54°   Wind: 10mph
Humidity: 64%   Direction: 270°W
Pressure: 29.89"   Gusts: NA
Location:  38.73°N, 82.86°W
Report Text: KDWU 252215Z AUTO 27009KT 10SM CLR 19/12 A2989 RMK AO1
Loading
Personal Weather Stations






























Interactive Weather Map
Tropical Storm Tracking
New forecast layout! Learn more

10-Day Weather Forecast

Advertisements
Track Severe Weather on mobile